Morris, IL

8:06 AM CDT on June 25, 2017 (GMT -0500)
Morris

Weather History for KC09 - February, 2012

Change the Weather History Date:

Thursday, February 16, 2012

  Actual Average (KARR) Record (KARR)
Temperature  
Mean Temperature 38 °F -  
Max Temperature 45 °F 34 °F 49 °F (2011)
Min Temperature 32 °F 19 °F -7 °F (2007)
Degree Days  
Heating Degree Days 26    
Moisture  
Dew Point 34 °F    
Average Humidity 87    
Maximum Humidity 100    
Minimum Humidity 55    
Precipitation  
Precipitation 0.08 in - - ()
Sea Level Pressure  
Sea Level Pressure 30.04 in    
Wind  
Wind Speed 7 mph (WNW)    
Max Wind Speed 22 mph    
Max Gust Speed 25 mph    
Visibility 4 miles    
Events Fog , Rain    
Averages and records for this station are not official NWS values.
T = Trace of Precipitation, MM = Missing Value Source: NWS Daily Summary

Daily Weather History Graph

Daily Weather History Graph

Search for Another Location

Airport or City:

Trip Planner

Search our weather history database for the weather conditions in past years. The results will help you decide how hot, cold, wet, or windy it might be!

Date:

Astronomy

Feb. 16, 2012 Rise Set
Actual Time 6:48 AM CST 5:28 PM CST
Civil Twilight 6:19 AM CST 5:56 PM CST
Nautical Twilight 5:47 AM CST 6:28 PM CST
Astronomical Twilight 5:15 AM CST 7:00 PM CST
Moon 2:45 AM CST (2/16) 12:17 PM CST (2/16)
Length of Visible Light 11h 36m
Length of Day
10h 40m
Waning Crescent, 28% of the Moon is Illuminated
Feb 16
Waning Crescent
Feb 21
New
Feb 29
First Quarter
Mar 8
Full
Mar 14
Last Quarter

Hourly Weather History & Observations

Time (CST) Temp. Windchill Dew Point Humidity Pressure Visibility Wind Dir Wind Speed Gust Speed Precip Events Conditions
12:15 AM 35.8 °F - 35.8 °F 100% 29.96 in 0.8 mi Calm Calm - N/A Rain Rain
12:35 AM 36.1 °F - 36.0 °F 99% 29.96 in 0.8 mi Calm Calm - 0.01 in Rain Rain
12:55 AM 36.0 °F 33.3 °F 35.8 °F 99% 29.96 in 1.0 mi WSW 3.5 mph - 0.02 in Rain Light Rain
1:15 AM 35.8 °F - 35.8 °F 100% 29.96 in 0.5 mi Calm Calm - 0.01 in Rain Light Rain
1:35 AM 35.8 °F 33.0 °F 35.8 °F 100% 29.96 in 0.5 mi West 3.5 mph - 0.04 in Rain Light Rain
1:55 AM 35.1 °F 32.2 °F 35.1 °F 100% 29.96 in 0.5 mi WNW 3.5 mph - 0.04 in   Light Drizzle
2:15 AM 34.7 °F 31.8 °F 34.7 °F 100% 29.96 in 0.5 mi NW 3.5 mph - 0.01 in Rain Light Rain
2:35 AM 35.6 °F - 35.2 °F 99% 29.95 in 0.5 mi Calm Calm - 0.02 in Rain Rain
2:55 AM 35.6 °F - 35.2 °F 99% 29.95 in 1.2 mi Calm Calm - 0.02 in Rain Light Rain
3:15 AM 34.7 °F - 34.7 °F 100% 29.94 in 0.8 mi Calm Calm - N/A Rain Light Rain
3:35 AM 35.4 °F 32.6 °F 35.4 °F 100% 29.95 in 0.5 mi NNW 3.5 mph - N/A Fog Fog
3:55 AM 35.8 °F 31.9 °F 35.8 °F 100% 29.95 in 0.8 mi NW 4.6 mph - N/A   Overcast
4:15 AM 36.0 °F 31.1 °F 36.0 °F 100% 29.96 in 1.0 mi NW 5.8 mph - N/A   Overcast
4:35 AM 36.0 °F 31.1 °F 36.0 °F 100% 29.96 in 2.0 mi NW 5.8 mph - N/A   Overcast
4:55 AM 35.6 °F 30.7 °F 35.6 °F 100% 29.97 in 1.2 mi NW 5.8 mph - N/A   Overcast
5:15 AM 35.6 °F 31.7 °F 35.6 °F 100% 29.98 in 2.5 mi NNW 4.6 mph - N/A   Overcast
5:35 AM 35.6 °F 31.7 °F 35.4 °F 99% 29.98 in 2.5 mi NNW 4.6 mph - N/A   Overcast
5:55 AM 34.7 °F 31.8 °F 34.7 °F 100% 29.98 in 2.5 mi NW 3.5 mph - N/A   Overcast
6:15 AM 34.3 °F 29.2 °F 34.3 °F 100% 29.99 in 2.0 mi West 5.8 mph - N/A   Overcast
6:35 AM 33.4 °F 29.1 °F 33.4 °F 100% 29.99 in 2.0 mi WNW 4.6 mph - N/A   Overcast
6:55 AM 33.3 °F 25.7 °F 33.3 °F 100% 30.00 in 2.0 mi NW 9.2 mph - N/A   Overcast
7:15 AM 33.1 °F 26.1 °F 33.1 °F 100% 30.01 in 1.2 mi WNW 8.1 mph - N/A   Overcast
7:35 AM 32.0 °F 25.6 °F 32.0 °F 100% 30.02 in 1.2 mi West 6.9 mph - N/A   Mostly Cloudy
7:55 AM 32.5 °F 25.5 °F 32.5 °F 100% 30.04 in 1.2 mi West 8.1 mph - N/A   Mist
8:15 AM 34.0 °F 25.5 °F 34.0 °F 100% 30.05 in 1.5 mi West 11.5 mph - N/A   Mostly Cloudy
8:35 AM 32.4 °F 23.5 °F 32.2 °F 99% 30.06 in 0.2 mi West 11.5 mph - N/A Fog Fog
8:55 AM 33.1 °F 23.4 °F 33.1 °F 100% 30.06 in 0.5 mi WNW 13.8 mph - N/A Fog Fog
9:15 AM 34.2 °F 24.8 °F 34.0 °F 99% 30.07 in 1.0 mi WNW 13.8 mph - N/A   Overcast
9:35 AM 36.0 °F 28.5 °F 35.8 °F 99% 30.07 in 1.8 mi WNW 10.4 mph - N/A   Mostly Cloudy
9:55 AM 37.4 °F 28.5 °F 36.5 °F 97% 30.07 in 3.0 mi West 15.0 mph - N/A   Scattered Clouds
10:15 AM 36.9 °F 28.7 °F 35.8 °F 96% 30.07 in 2.5 mi WNW 12.7 mph - N/A   Scattered Clouds
10:35 AM 37.8 °F 29.8 °F 36.5 °F 95% 30.08 in 2.5 mi West 12.7 mph - N/A   Mostly Cloudy
10:55 AM 38.1 °F 30.7 °F 36.5 °F 94% 30.09 in 2.5 mi West 11.5 mph - N/A   Mostly Cloudy
11:15 AM 40.1 °F 33.2 °F 37.4 °F 90% 30.08 in 4.0 mi West 11.5 mph - N/A   Scattered Clouds
11:35 AM 41.9 °F 35.0 °F 37.2 °F 83% 30.08 in 5.0 mi West 12.7 mph - N/A   Haze
11:55 AM 42.8 °F 35.4 °F 37.4 °F 81% 30.08 in 7.0 mi WNW 15.0 mph - N/A   Clear
12:15 PM 43.3 °F 35.0 °F 35.8 °F 75% 30.08 in 7.0 mi WNW 19.6 mph - N/A   Scattered Clouds
12:35 PM 43.3 °F 35.8 °F 34.5 °F 71% 30.08 in 10.0 mi WNW 16.1 mph - N/A   Scattered Clouds
12:55 PM 45.7 °F 38.0 °F 36.1 °F 69% 30.07 in 10.0 mi WNW 19.6 mph 25.3 mph N/A   Mostly Cloudy
1:15 PM 45.1 °F 36.9 °F 35.1 °F 68% 30.07 in 10.0 mi WNW 21.9 mph 25.3 mph N/A   Mostly Cloudy
1:35 PM 44.1 °F 35.9 °F 34.2 °F 68% 30.08 in 10.0 mi WNW 19.6 mph - N/A   Mostly Cloudy
1:55 PM 44.2 °F 36.2 °F 33.3 °F 65% 30.08 in 10.0 mi WNW 19.6 mph 24.2 mph N/A   Scattered Clouds
2:15 PM 44.6 °F 36.4 °F 32.0 °F 61% 30.08 in 10.0 mi WNW 20.7 mph - N/A   Scattered Clouds
2:35 PM 44.1 °F 36.5 °F 31.8 °F 62% 30.08 in 10.0 mi WNW 17.3 mph 25.3 mph N/A   Scattered Clouds
2:55 PM 43.3 °F 36.5 °F 30.9 °F 62% 30.09 in 10.0 mi NW 13.8 mph 23.0 mph N/A   Scattered Clouds
3:15 PM 43.9 °F 36.2 °F 28.8 °F 55% 30.09 in 10.0 mi WNW 17.3 mph 20.7 mph N/A   Clear
3:35 PM 43.7 °F 35.7 °F 28.8 °F 56% 30.09 in 10.0 mi WNW 18.4 mph - N/A   Clear
3:55 PM 43.3 °F 35.8 °F 28.6 °F 56% 30.10 in 10.0 mi WNW 16.1 mph 20.7 mph N/A   Clear
4:15 PM 42.4 °F 35.0 °F 28.4 °F 58% 30.10 in 10.0 mi WNW 15.0 mph 20.7 mph N/A   Clear
4:35 PM 41.5 °F 35.9 °F 30.0 °F 64% 30.10 in 10.0 mi West 9.2 mph - N/A   Clear
4:55 PM 40.5 °F 34.6 °F 29.1 °F 64% 30.11 in 10.0 mi West 9.2 mph - N/A   Clear
5:15 PM 39.0 °F 32.8 °F 28.9 °F 67% 30.12 in 10.0 mi West 9.2 mph - N/A   Clear
5:35 PM 37.4 °F 31.4 °F 27.5 °F 67% 30.12 in 10.0 mi West 8.1 mph - N/A   Clear
5:55 PM 35.8 °F 29.4 °F 27.9 °F 73% 30.12 in 10.0 mi West 8.1 mph - N/A   Clear
6:15 PM 35.2 °F 30.3 °F 27.5 °F 73% 30.12 in 10.0 mi WSW 5.8 mph - N/A   Clear
6:35 PM 34.7 °F 30.6 °F 27.9 °F 76% 30.12 in 10.0 mi WSW 4.6 mph - N/A   Clear
6:55 PM 33.8 °F 29.6 °F 27.1 °F 77% 30.11 in 10.0 mi WSW 4.6 mph - N/A   Clear
7:15 PM 32.4 °F 26.9 °F 26.6 °F 79% 30.12 in 10.0 mi SW 5.8 mph - N/A   Clear
7:35 PM 32.4 °F 26.9 °F 27.0 °F 80% 30.12 in 10.0 mi SW 5.8 mph - N/A   Clear
7:55 PM 32.9 °F 27.5 °F 26.8 °F 78% 30.12 in 10.0 mi SW 5.8 mph - N/A   Clear
8:15 PM 32.9 °F 25.9 °F 26.4 °F 77% 30.12 in 10.0 mi WSW 8.1 mph - N/A   Clear
8:35 PM 33.6 °F 26.2 °F 27.1 °F 77% 30.12 in 10.0 mi WSW 9.2 mph - N/A   Clear
8:55 PM 33.3 °F 25.1 °F 27.3 °F 79% 30.13 in 10.0 mi WSW 10.4 mph - N/A   Clear
9:15 PM 33.1 °F 25.5 °F 27.1 °F 79% 30.13 in 10.0 mi WSW 9.2 mph - N/A   Clear
9:35 PM 32.0 °F 27.5 °F 26.8 °F 81% 30.13 in 10.0 mi West 4.6 mph - N/A   Clear
9:55 PM 32.0 °F 24.8 °F 26.8 °F 81% 30.14 in 10.0 mi West 8.1 mph - N/A   Clear
10:15 PM 32.0 °F 24.8 °F 26.6 °F 80% 30.14 in 10.0 mi West 8.1 mph - N/A   Clear
10:35 PM 31.8 °F 25.4 °F 26.6 °F 81% 30.13 in 10.0 mi West 6.9 mph - N/A   Clear
10:55 PM 30.6 °F 23.8 °F 26.2 °F 84% 30.13 in 10.0 mi West 6.9 mph - N/A   Clear
11:15 PM 30.0 °F 24.1 °F 25.9 °F 85% 30.13 in 10.0 mi WNW 5.8 mph - N/A   Clear
11:35 PM 29.1 °F 22.1 °F 25.9 °F 88% 30.13 in 10.0 mi WNW 6.9 mph - N/A   Clear
11:55 PM 29.3 °F 22.3 °F 25.7 °F 86% 30.13 in 10.0 mi West 6.9 mph - N/A   Clear